Piraque, Brazil
Current Conditions -  °F | °C
As of 9:00 AM on Sunday 21 Dec 2014 (Local Time) from SBIZ Reporting Station
Scattered Clouds Scattered Clouds  
Wind Chill: 84°   Ceiling: Unl
Heat Index: 92°   Visibility: 6mi
Dew Point: 75°   Wind: 9mph
Humidity: 74%   Direction: 100°E
Pressure: 29.91"   Gusts: NA
Location:  6.77°S, 48.3°W
Report Text: SBIZ 211200Z 10008KT 9999 SCT020 29/24 Q1013
Loading
Personal Weather Stations






























Interactive Weather Map New forecast layout! Learn more

10-Day Weather Forecast

Advertisements
Track Severe Weather on mobile